Time;durP1;ratioP1;P1;durP2;ratioP2;P2;SDS_P1;SDS_P2;PMS_P1;PMS_P2;Temp;Humidity;BMP_temperature;BMP_pressure;BME280_temperature;BME280_humidity;BME280_pressure;Samples;Min_cycle;Max_cycle;Signal;HPM_P1;HPM_P2
2022/11/28 00:02:08;;;;;;;18.80;9.32;;;4.00;99.90;;;;;;5107265;28;20047;-62
2022/11/28 00:04:42;;;;;;;33.90;16.33;;;3.80;99.90;;;;;;5082996;29;20056;-61
2022/11/28 00:07:19;;;;;;;33.10;14.63;;;3.90;99.90;;;;;;5077098;29;20036;-62
2022/11/28 00:09:51;;;;;;;29.95;13.95;;;3.90;99.90;;;;;;5060783;29;20039;-62
2022/11/28 00:12:23;;;;;;;28.55;14.85;;;3.90;99.90;;;;;;5076279;29;20035;-61
2022/11/28 00:14:57;;;;;;;26.40;14.40;;;3.80;99.90;;;;;;5060406;29;20052;-61
2022/11/28 00:17:29;;;;;;;20.55;10.70;;;3.80;99.90;;;;;;5092561;29;20063;-60
2022/11/28 00:20:05;;;;;;;26.75;13.45;;;3.60;99.90;;;;;;5078137;29;20077;-61
2022/11/28 00:22:36;;;;;;;32.83;13.93;;;3.60;99.90;;;;;;5093463;29;20727;-62
2022/11/28 00:25:08;;;;;;;29.17;12.55;;;3.60;99.90;;;;;;5139637;28;20114;-61
2022/11/28 00:27:41;;;;;;;26.05;12.52;;;3.70;99.90;;;;;;5155841;28;20034;-61
2022/11/28 00:30:12;;;;;;;27.63;14.07;;;3.60;99.90;;;;;;5151119;28;20049;-60
2022/11/28 00:32:46;;;;;;;25.08;13.68;;;3.60;99.90;;;;;;5124645;28;20038;-62
2022/11/28 00:35:23;;;;;;;10.43;6.43;;;3.40;99.90;;;;;;5138381;28;20034;-62
2022/11/28 00:37:55;;;;;;;21.85;12.73;;;3.20;99.90;;;;;;5120716;28;20034;-61
2022/11/28 00:40:29;;;;;;;21.33;11.63;;;3.10;99.90;;;;;;5127791;28;20046;-62
2022/11/28 00:43:00;;;;;;;23.95;12.55;;;3.10;99.90;;;;;;5140905;28;20436;-61
2022/11/28 00:45:37;;;;;;;20.95;11.05;;;3.00;99.90;;;;;;5155608;28;20030;-62
2022/11/28 00:48:08;;;;;;;23.05;11.40;;;3.00;99.90;;;;;;5156602;28;20215;-61
2022/11/28 00:50:39;;;;;;;14.50;9.07;;;3.00;99.90;;;;;;5152879;28;20030;-61
2022/11/28 00:53:15;;;;;;;21.55;11.80;;;3.00;99.90;;;;;;5156296;28;20206;-61
2022/11/28 00:55:49;;;;;;;22.65;11.77;;;3.00;99.90;;;;;;5170422;28;20042;-62
2022/11/28 00:58:20;;;;;;;24.43;11.30;;;2.90;99.90;;;;;;5124964;28;20038;-61
2022/11/28 01:00:59;;;;;;;22.40;11.73;;;2.90;99.90;;;;;;5192933;23;20042;-79
2022/11/28 01:03:30;;;;;;;19.17;10.48;;;2.80;99.90;;;;;;5154735;28;20034;-79
2022/11/28 01:06:02;;;;;;;22.42;11.88;;;2.90;99.90;;;;;;5142371;28;20358;-79
2022/11/28 01:08:34;;;;;;;13.68;6.38;;;2.80;99.90;;;;;;5144422;28;20049;-80
2022/11/28 01:11:16;;;;;;;21.20;10.80;;;2.70;99.90;;;;;;5165794;28;20038;-80
2022/11/28 01:13:48;;;;;;;19.95;11.63;;;2.60;99.90;;;;;;5177708;28;20032;-80
2022/11/28 01:16:22;;;;;;;23.20;11.27;;;2.60;99.90;;;;;;5160299;28;20377;-80
2022/11/28 01:18:53;;;;;;;26.10;11.98;;;2.60;99.90;;;;;;5159790;28;20037;-80
2022/11/28 01:21:26;;;;;;;25.40;10.88;;;2.60;99.90;;;;;;5158708;28;20041;-81
2022/11/28 01:23:58;;;;;;;17.15;10.40;;;2.50;99.90;;;;;;5152626;28;20039;-79
2022/11/28 01:26:32;;;;;;;20.27;10.70;;;2.60;99.90;;;;;;5171171;28;20042;-78
2022/11/28 01:29:06;;;;;;;;;;;2.50;99.90;;;;;;5178464;28;20044;-79
2022/11/28 01:31:39;;;;;;;23.67;12.38;;;2.50;99.90;;;;;;5178413;28;19901;-79
2022/11/28 01:34:11;;;;;;;26.10;12.00;;;2.50;99.90;;;;;;5155171;28;20048;-80
2022/11/28 01:36:42;;;;;;;20.10;10.52;;;2.50;99.90;;;;;;5158117;28;20040;-79
2022/11/28 01:39:14;;;;;;;23.00;9.02;;;2.40;99.90;;;;;;5175506;28;20036;-81
2022/11/28 01:41:48;;;;;;;21.08;9.07;;;2.40;99.90;;;;;;5175440;28;20222;-79
2022/11/28 01:44:19;;;;;;;50.25;13.75;;;2.30;99.90;;;;;;5158309;28;20053;-78
2022/11/28 01:46:53;;;;;;;30.35;11.38;;;2.30;99.90;;;;;;5157886;28;20209;-78
2022/11/28 01:49:38;;;;;;;49.60;13.55;;;2.40;99.90;;;;;;5155671;28;20027;-79
2022/11/28 01:52:15;;;;;;;60.42;11.73;;;2.40;99.90;;;;;;5153690;28;20027;-81
2022/11/28 01:55:01;;;;;;;47.47;11.57;;;2.40;99.90;;;;;;5158064;28;20042;-81
2022/11/28 01:57:33;;;;;;;18.30;9.77;;;2.40;99.90;;;;;;5136950;28;20030;-81
2022/11/28 02:00:20;;;;;;;31.80;10.10;;;2.60;99.90;;;;;;5154313;28;20038;-79
2022/11/28 02:03:00;;;;;;;15.30;8.13;;;2.50;99.90;;;;;;5154331;28;20042;-80
2022/11/28 02:05:32;;;;;;;21.30;10.43;;;2.50;99.90;;;;;;5163806;28;20062;-78
2022/11/28 02:08:04;;;;;;;51.08;11.85;;;2.60;99.90;;;;;;5156537;28;20034;-78
2022/11/28 02:11:09;;;;;;;29.75;11.55;;;2.60;99.90;;;;;;5173913;28;20359;-79
2022/11/28 02:14:04;;;;;;;27.63;12.88;;;2.60;99.90;;;;;;5155429;28;20052;-79
2022/11/28 02:16:43;;;;;;;35.42;12.38;;;2.60;99.90;;;;;;5173314;28;20038;-80
2022/11/28 02:19:39;;;;;;;40.53;13.25;;;2.70;99.90;;;;;;5156586;28;20073;-80
2022/11/28 02:22:19;;;;;;;24.05;11.60;;;2.80;99.90;;;;;;5174748;28;20022;-81
2022/11/28 02:25:27;;;;;;;25.35;12.07;;;2.80;99.90;;;;;;5172811;28;20022;-79
2022/11/28 02:28:01;;;;;;;28.83;12.07;;;2.80;99.90;;;;;;5136107;28;20042;-80
2022/11/28 02:31:00;;;;;;;26.35;11.77;;;2.80;99.90;;;;;;5153648;28;20036;-80
2022/11/28 02:33:43;;;;;;;21.70;11.43;;;3.00;99.90;;;;;;5152320;28;20297;-78
2022/11/28 02:36:22;;;;;;;26.08;11.90;;;3.00;99.90;;;;;;5163643;28;20129;-79
2022/11/28 02:39:00;;;;;;;28.15;11.55;;;3.00;99.90;;;;;;5194419;28;20216;-81
2022/11/28 02:41:54;;;;;;;22.42;10.02;;;3.20;99.90;;;;;;5172968;28;20026;-78
2022/11/28 02:44:35;;;;;;;24.67;11.73;;;3.10;99.90;;;;;;5185207;28;20037;-80
2022/11/28 02:47:29;;;;;;;23.13;10.85;;;3.20;99.90;;;;;;5169563;28;20036;-79
2022/11/28 02:50:32;;;;;;;21.37;10.87;;;3.20;99.90;;;;;;5173911;28;20033;-79
2022/11/28 02:53:14;;;;;;;21.23;10.85;;;3.30;99.90;;;;;;5143218;28;20047;-79
2022/11/28 02:55:46;;;;;;;32.53;11.02;;;3.40;99.90;;;;;;5116243;28;20389;-79
2022/11/28 02:58:22;;;;;;;21.75;10.45;;;3.40;99.90;;;;;;5116103;29;20043;-80
2022/11/28 03:00:55;;;;;;;17.13;8.60;;;3.30;99.90;;;;;;5132005;28;20051;-80
2022/11/28 03:03:48;;;;;;;19.80;10.48;;;3.40;99.90;;;;;;5131347;28;20065;-79
2022/11/28 03:06:41;;;;;;;19.08;10.68;;;3.40;99.90;;;;;;5122198;29;20070;-80
2022/11/28 03:09:40;;;;;;;22.73;10.57;;;3.40;99.90;;;;;;5132669;29;20041;-80
2022/11/28 03:12:58;;;;;;;19.52;9.30;;;3.50;99.90;;;;;;5143584;28;20062;-80
2022/11/28 03:15:57;;;;;;;20.38;9.23;;;3.50;99.90;;;;;;5121167;29;20055;-79
2022/11/28 03:18:35;;;;;;;16.27;6.97;;;3.50;99.90;;;;;;5126845;29;20023;-80
2022/11/28 03:21:20;;;;;;;16.52;8.80;;;3.40;99.90;;;;;;5115670;29;20039;-79
2022/11/28 03:24:15;;;;;;;18.92;9.45;;;3.50;99.90;;;;;;5148639;28;20038;-79
2022/11/28 03:27:00;;;;;;;14.63;8.30;;;3.60;99.90;;;;;;5156274;28;20377;-78
2022/11/28 03:29:40;;;;;;;17.33;8.48;;;3.50;99.90;;;;;;5176865;28;20027;-79
2022/11/28 03:32:24;;;;;;;14.68;7.32;;;3.50;99.90;;;;;;5168378;28;20037;-78
2022/11/28 03:35:03;;;;;;;19.25;9.00;;;3.40;99.90;;;;;;5167539;28;20038;-79
2022/11/28 03:37:54;;;;;;;13.35;7.03;;;3.50;99.90;;;;;;5168632;28;20035;-79
2022/11/28 03:40:31;;;;;;;20.05;8.98;;;3.60;99.90;;;;;;5151707;28;20030;-78
2022/11/28 03:43:18;;;;;;;18.65;8.57;;;3.60;99.90;;;;;;5185435;28;20036;-79
2022/11/28 03:45:55;;;;;;;21.83;8.82;;;3.60;99.90;;;;;;5154469;28;20037;-78
2022/11/28 03:48:38;;;;;;;18.35;8.02;;;3.70;99.90;;;;;;5163935;28;20019;-79
2022/11/28 03:51:16;;;;;;;17.13;8.60;;;3.80;99.90;;;;;;5142075;28;20034;-79
2022/11/28 03:54:08;;;;;;;17.90;8.98;;;3.70;99.90;;;;;;5145516;28;20025;-80
2022/11/28 03:56:58;;;;;;;19.13;8.05;;;3.70;99.90;;;;;;5177756;28;20040;-79
2022/11/28 03:59:39;;;;;;;15.45;8.38;;;3.70;99.90;;;;;;5177652;28;20033;-80
2022/11/28 04:02:40;;;;;;;16.38;8.55;;;3.70;99.90;;;;;;5177988;28;20045;-78
2022/11/28 04:05:13;;;;;;;19.05;9.40;;;3.70;99.90;;;;;;5129172;28;20043;-82
2022/11/28 04:08:09;;;;;;;16.87;8.80;;;3.70;99.90;;;;;;5175648;28;20026;-79
2022/11/28 04:11:02;;;;;;;20.60;8.35;;;3.70;99.90;;;;;;5140759;28;20321;-79
2022/11/28 04:13:44;;;;;;;14.38;8.20;;;3.70;99.90;;;;;;5156835;28;20034;-79
2022/11/28 04:16:27;;;;;;;14.95;7.60;;;3.70;99.90;;;;;;5173102;28;21577;-78
2022/11/28 04:19:12;;;;;;;16.33;7.72;;;3.70;99.90;;;;;;5152373;28;20045;-79
2022/11/28 04:22:01;;;;;;;16.45;7.90;;;3.70;99.90;;;;;;5153814;28;20039;-79
2022/11/28 04:24:40;;;;;;;16.45;8.18;;;3.80;99.90;;;;;;5152992;28;20041;-79
2022/11/28 04:27:16;;;;;;;14.15;7.15;;;4.00;99.90;;;;;;5172648;28;20498;-78
2022/11/28 04:29:53;;;;;;;18.48;8.30;;;3.90;99.90;;;;;;5167494;28;20048;-79
2022/11/28 04:32:27;;;;;;;16.73;7.20;;;4.00;99.90;;;;;;5172477;28;20028;-79
2022/11/28 04:35:06;;;;;;;19.17;8.45;;;4.00;99.90;;;;;;5179225;28;20036;-79
2022/11/28 04:37:40;;;;;;;18.67;8.85;;;4.10;99.90;;;;;;5195158;28;20044;-79
2022/11/28 04:40:12;;;;;;;15.25;7.35;;;4.10;99.90;;;;;;5176446;28;20022;-80
2022/11/28 04:42:56;;;;;;;11.35;6.45;;;4.00;99.90;;;;;;5176674;28;20044;-78
2022/11/28 04:45:43;;;;;;;13.65;7.32;;;4.00;99.90;;;;;;5157131;28;20038;-78
2022/11/28 04:48:17;;;;;;;16.92;8.50;;;4.00;99.90;;;;;;5161612;28;20052;-78
2022/11/28 04:50:51;;;;;;;13.63;7.78;;;3.90;99.90;;;;;;5179206;28;20203;-79
2022/11/28 04:53:48;;;;;;;14.07;6.65;;;4.00;99.90;;;;;;5194397;28;20032;-80
2022/11/28 04:56:26;;;;;;;18.83;7.60;;;4.00;99.90;;;;;;5196132;28;20226;-79
2022/11/28 04:59:01;;;;;;;15.45;7.10;;;3.90;99.90;;;;;;5179482;28;20022;-81
2022/11/28 05:01:40;;;;;;;10.05;5.95;;;3.80;99.90;;;;;;5187645;28;20037;-80
2022/11/28 05:04:13;;;;;;;15.10;6.82;;;3.80;99.90;;;;;;5166140;28;20042;-79
2022/11/28 05:06:44;;;;;;;12.43;6.47;;;3.70;99.90;;;;;;5163559;28;20044;-81
2022/11/28 05:09:17;;;;;;;12.10;6.25;;;3.70;99.90;;;;;;5138630;28;20030;-80
2022/11/28 05:11:49;;;;;;;12.57;6.93;;;3.60;99.90;;;;;;5155949;28;20037;-79
2022/11/28 05:14:23;;;;;;;12.70;6.75;;;3.50;99.90;;;;;;5158133;28;20192;-80
2022/11/28 05:16:56;;;;;;;13.63;6.72;;;3.60;99.90;;;;;;5139200;28;20035;-78
2022/11/28 05:19:27;;;;;;;9.27;5.43;;;3.60;99.90;;;;;;5154822;28;20073;-80
2022/11/28 05:22:01;;;;;;;13.65;6.10;;;3.60;99.90;;;;;;5154161;28;20630;-81
2022/11/28 05:24:32;;;;;;;12.63;6.53;;;3.50;99.90;;;;;;5155239;28;20066;-79
2022/11/28 05:27:03;;;;;;;12.38;5.70;;;3.40;99.90;;;;;;5163998;28;20033;-79
2022/11/28 05:29:36;;;;;;;9.98;6.32;;;3.50;99.90;;;;;;5195401;28;20028;-79
2022/11/28 05:32:07;;;;;;;14.48;6.82;;;3.50;99.90;;;;;;5165977;28;20030;-79
2022/11/28 05:34:40;;;;;;;15.25;6.25;;;3.40;99.90;;;;;;5175040;28;20052;-79
2022/11/28 05:37:12;;;;;;;13.15;6.20;;;3.50;99.90;;;;;;5150601;28;20029;-79
2022/11/28 05:39:43;;;;;;;10.48;5.45;;;3.60;99.90;;;;;;5173360;28;20049;-78
2022/11/28 05:42:15;;;;;;;12.68;6.97;;;3.50;99.90;;;;;;5174400;28;20018;-79
2022/11/28 05:44:49;;;;;;;13.75;7.00;;;3.60;99.90;;;;;;5174139;28;20029;-78
2022/11/28 05:47:22;;;;;;;11.60;6.22;;;3.60;99.90;;;;;;5173858;28;20018;-79
2022/11/28 05:49:55;;;;;;;10.02;6.18;;;3.70;99.90;;;;;;5170383;28;20040;-79
2022/11/28 05:52:32;;;;;;;11.18;5.88;;;3.60;99.90;;;;;;5175177;28;20034;-78
2022/11/28 05:55:07;;;;;;;1921.32;723.47;;;3.60;99.90;;;;;;5176291;28;20030;-79
2022/11/28 05:57:38;;;;;;;378.52;217.68;;;3.50;99.90;;;;;;5120332;28;20045;-77
2022/11/28 06:00:10;;;;;;;1999.90;897.15;;;3.60;99.90;;;;;;5160456;28;20034;-78
2022/11/28 06:02:43;;;;;;;858.58;483.88;;;3.70;99.90;;;;;;5166820;28;20046;-79
2022/11/28 06:05:16;;;;;;;170.88;111.10;;;3.70;99.90;;;;;;5147094;28;20591;-78
2022/11/28 06:07:48;;;;;;;389.08;286.35;;;3.70;99.90;;;;;;5174114;28;20042;-80
2022/11/28 06:10:21;;;;;;;163.40;116.30;;;3.70;99.90;;;;;;5173785;28;20038;-77
2022/11/28 06:12:52;;;;;;;59.03;33.97;;;3.60;99.90;;;;;;5157385;28;20034;-77
2022/11/28 06:15:26;;;;;;;203.88;126.55;;;3.70;99.90;;;;;;5174732;28;20035;-80
2022/11/28 06:17:57;;;;;;;297.30;188.70;;;3.70;99.90;;;;;;5174923;28;20060;-80
2022/11/28 06:20:28;;;;;;;54.65;37.90;;;3.80;99.90;;;;;;5175597;28;20040;-78
2022/11/28 06:22:59;;;;;;;119.78;79.72;;;3.70;99.90;;;;;;5157666;28;20036;-79
2022/11/28 06:25:32;;;;;;;20.17;15.93;;;3.80;99.90;;;;;;5175042;28;20338;-81
2022/11/28 06:28:06;;;;;;;50.90;34.25;;;3.70;99.90;;;;;;5175729;28;20033;-80
2022/11/28 06:30:44;;;;;;;52.47;37.17;;;3.70;99.90;;;;;;5180900;28;20022;-80
2022/11/28 06:33:19;;;;;;;37.70;28.65;;;3.70;99.90;;;;;;5174438;28;20037;-79
2022/11/28 06:35:53;;;;;;;16.58;10.35;;;3.80;99.90;;;;;;5137192;28;20045;-79
2022/11/28 06:38:26;;;;;;;13.30;8.05;;;3.80;99.90;;;;;;5161726;28;20015;-76
2022/11/28 06:41:11;;;;;;;18.13;13.00;;;3.80;99.90;;;;;;5169699;28;20023;-78
2022/11/28 06:43:44;;;;;;;36.78;26.20;;;3.80;99.90;;;;;;5137015;28;20044;-78
2022/11/28 06:46:19;;;;;;;20.42;15.20;;;3.90;99.90;;;;;;5152446;28;20057;-79
2022/11/28 06:48:55;;;;;;;23.70;16.40;;;4.00;99.90;;;;;;5171375;28;20022;-78
2022/11/28 06:51:27;;;;;;;14.80;9.05;;;4.10;99.90;;;;;;5179213;28;20025;-79
2022/11/28 06:54:06;;;;;;;15.45;9.85;;;4.10;99.90;;;;;;5195266;28;20319;-79
2022/11/28 06:56:45;;;;;;;17.17;10.35;;;4.30;99.90;;;;;;5175614;28;20042;-79
2022/11/28 06:59:16;;;;;;;22.77;16.92;;;4.20;99.90;;;;;;5195290;28;20030;-79
2022/11/28 07:01:50;;;;;;;622.92;395.40;;;4.40;99.90;;;;;;5186732;28;20056;-79
2022/11/28 07:04:21;;;;;;;211.82;148.52;;;4.50;99.90;;;;;;5145553;28;20030;-78
2022/11/28 07:06:57;;;;;;;70.95;47.35;;;4.70;99.90;;;;;;5139725;28;20176;-79
2022/11/28 07:09:31;;;;;;;85.68;62.30;;;4.80;99.90;;;;;;5152382;28;20304;-79
2022/11/28 07:12:02;;;;;;;;;;;4.70;99.90;;;;;;5157526;28;20030;-81
2022/11/28 07:14:36;;;;;;;140.52;109.57;;;4.70;99.90;;;;;;5150389;28;19909;-81
2022/11/28 07:17:10;;;;;;;32.45;26.30;;;4.90;99.90;;;;;;5178706;28;20038;-78
2022/11/28 07:19:49;;;;;;;111.78;92.72;;;4.90;99.90;;;;;;5188612;28;20300;-80
2022/11/28 07:22:23;;;;;;;84.25;62.38;;;4.90;99.90;;;;;;5143519;28;20034;-81
2022/11/28 07:24:56;;;;;;;30.87;19.00;;;4.80;99.90;;;;;;5159946;28;20026;-80
2022/11/28 07:27:30;;;;;;;24.52;14.85;;;4.70;99.90;;;;;;5159671;28;20040;-79
2022/11/28 07:30:02;;;;;;;58.88;44.33;;;4.90;99.90;;;;;;5159884;28;20042;-79
2022/11/28 07:32:33;;;;;;;21.80;14.95;;;5.00;99.90;;;;;;5179467;28;20034;-79
2022/11/28 07:35:07;;;;;;;43.65;27.98;;;5.00;99.90;;;;;;5157392;28;20045;-81
2022/11/28 07:37:41;;;;;;;20.08;14.23;;;5.10;99.90;;;;;;5151576;28;20030;-81
2022/11/28 07:40:17;;;;;;;27.83;18.07;;;5.30;99.90;;;;;;5180453;28;20030;-80
2022/11/28 07:42:51;;;;;;;61.28;45.38;;;5.30;99.90;;;;;;5162629;28;20033;-80
2022/11/28 07:45:22;;;;;;;30.08;19.80;;;5.30;99.90;;;;;;5161088;28;20046;-80
2022/11/28 07:47:58;;;;;;;23.98;16.25;;;5.30;99.90;;;;;;5198913;28;20040;-80
2022/11/28 07:50:32;;;;;;;26.70;17.95;;;5.40;99.90;;;;;;5177880;28;20341;-80
2022/11/28 07:53:06;;;;;;;18.17;11.93;;;5.30;99.90;;;;;;5160383;28;20048;-79
2022/11/28 07:55:37;;;;;;;15.02;9.00;;;5.20;99.90;;;;;;5172086;28;20042;-79
2022/11/28 07:58:08;;;;;;;19.60;12.23;;;5.50;99.90;;;;;;5172095;28;20034;-79
2022/11/28 08:00:45;;;;;;;10.80;7.55;;;5.70;99.90;;;;;;5175300;28;20034;-76
2022/11/28 08:03:24;;;;;;;15.27;9.23;;;5.90;99.90;;;;;;5151319;28;20035;-78
2022/11/28 08:05:59;;;;;;;8.75;5.20;;;6.00;99.90;;;;;;5160338;28;20058;-78
2022/11/28 08:08:36;;;;;;;16.55;7.85;;;6.00;99.90;;;;;;5172380;28;20040;-78
2022/11/28 08:11:10;;;;;;;14.35;9.15;;;6.40;99.90;;;;;;5142339;28;20042;-78
2022/11/28 08:13:44;;;;;;;21.23;15.05;;;6.70;99.90;;;;;;5128365;28;20323;-79
2022/11/28 08:16:20;;;;;;;41.22;28.45;;;6.70;99.90;;;;;;5168122;28;20308;-79
2022/11/28 08:18:54;;;;;;;24.70;14.48;;;6.90;99.90;;;;;;5174416;28;20030;-81
2022/11/28 08:21:31;;;;;;;17.38;11.13;;;6.90;99.90;;;;;;5172742;28;20022;-80
2022/11/28 08:24:04;;;;;;;32.03;22.75;;;7.10;99.90;;;;;;5190605;28;20038;-81
2022/11/28 08:26:41;;;;;;;103.18;75.60;;;7.10;99.90;;;;;;5190729;28;20041;-79
2022/11/28 08:29:14;;;;;;;50.78;38.08;;;7.30;99.90;;;;;;5174049;28;20028;-80
2022/11/28 08:31:53;;;;;;;35.55;25.25;;;7.20;99.90;;;;;;5174541;28;20035;-80
2022/11/28 08:34:27;;;;;;;21.40;17.02;;;7.20;99.90;;;;;;5192525;28;20036;-80
2022/11/28 08:36:59;;;;;;;41.40;31.67;;;7.40;99.90;;;;;;5187898;28;20042;-80
2022/11/28 08:39:32;;;;;;;38.20;27.45;;;7.20;99.90;;;;;;5182286;28;20052;-80
2022/11/28 08:42:04;;;;;;;118.07;95.50;;;7.00;99.90;;;;;;5182275;28;20033;-82
2022/11/28 08:44:35;;;;;;;28.40;21.83;;;7.10;99.90;;;;;;5182764;28;20030;-82
2022/11/28 08:47:14;;;;;;;11.82;9.32;;;7.10;99.90;;;;;;5182786;28;20026;-82
2022/11/28 08:49:46;;;;;;;14.95;8.90;;;7.10;99.90;;;;;;5181394;28;20027;-82
2022/11/28 08:52:22;;;;;;;12.07;9.93;;;7.10;99.90;;;;;;5166477;28;20312;-78
2022/11/28 08:54:55;;;;;;;9.27;4.68;;;7.20;99.90;;;;;;5164720;28;20211;-80
2022/11/28 08:57:27;;;;;;;9.52;7.45;;;7.30;99.90;;;;;;5162344;28;20038;-82
2022/11/28 09:00:05;;;;;;;7.20;4.47;;;7.30;99.90;;;;;;5178543;28;20046;-82
2022/11/28 09:02:36;;;;;;;10.45;5.78;;;7.10;99.90;;;;;;5161878;28;20026;-81
2022/11/28 09:05:07;;;;;;;9.63;4.97;;;7.10;99.90;;;;;;5168508;28;20048;-80
2022/11/28 09:07:41;;;;;;;5.15;3.88;;;7.30;99.90;;;;;;5177725;28;20026;-80
2022/11/28 09:10:12;;;;;;;13.50;9.05;;;7.50;99.90;;;;;;5178535;28;20318;-81
2022/11/28 09:12:43;;;;;;;10.55;6.13;;;7.50;99.90;;;;;;5177984;28;20317;-79
2022/11/28 09:15:14;;;;;;;8.52;6.45;;;7.60;99.90;;;;;;5178686;28;20207;-80
2022/11/28 09:17:48;;;;;;;10.63;6.43;;;7.90;99.90;;;;;;5177178;28;20034;-80
2022/11/28 09:20:20;;;;;;;10.73;7.78;;;8.10;99.90;;;;;;5175601;28;20028;-81
2022/11/28 09:22:51;;;;;;;8.73;4.45;;;8.40;99.90;;;;;;5175231;28;20022;-82
2022/11/28 09:25:39;;;;;;;5.88;4.63;;;8.40;99.90;;;;;;5145346;28;20030;-79
2022/11/28 09:28:11;;;;;;;12.05;5.03;;;8.20;99.90;;;;;;5176100;28;20513;-80
2022/11/28 09:30:42;;;;;;;8.45;5.45;;;8.30;99.90;;;;;;5177747;28;20032;-80
2022/11/28 09:33:21;;;;;;;14.60;9.95;;;8.40;99.90;;;;;;5179108;28;20026;-81
2022/11/28 09:35:55;;;;;;;8.13;5.22;;;8.00;99.90;;;;;;5162780;28;20038;-80
2022/11/28 09:38:26;;;;;;;7.28;4.80;;;8.10;99.90;;;;;;5191444;28;20030;-80
2022/11/28 09:40:57;;;;;;;6.38;3.70;;;8.40;99.90;;;;;;5159308;28;20026;-80
2022/11/28 09:43:45;;;;;;;7.30;4.47;;;8.30;99.90;;;;;;5143535;28;20053;-80
2022/11/28 09:46:41;;;;;;;5.70;3.72;;;8.30;99.90;;;;;;5176433;28;20026;-80
2022/11/28 09:49:36;;;;;;;5.40;3.38;;;8.20;99.90;;;;;;5176450;28;20022;-80
2022/11/28 09:52:39;;;;;;;5.70;3.80;;;8.40;99.90;;;;;;5158077;28;20040;-80
2022/11/28 09:55:21;;;;;;;4.35;3.38;;;8.60;99.90;;;;;;5155377;28;20026;-81
2022/11/28 09:57:58;;;;;;;4.35;2.90;;;8.30;99.90;;;;;;5176560;28;20324;-81
2022/11/28 10:00:44;;;;;;;4.68;3.30;;;7.80;99.90;;;;;;5175258;28;20040;-80
2022/11/28 10:03:18;;;;;;;9.82;4.70;;;7.90;99.90;;;;;;5173173;28;20044;-80
2022/11/28 10:05:57;;;;;;;5.15;4.07;;;8.00;99.90;;;;;;5130078;28;20098;-79
2022/11/28 10:08:47;;;;;;;7.85;4.43;;;8.10;99.90;;;;;;5140687;28;20436;-80
2022/11/28 10:11:39;;;;;;;7.57;6.20;;;8.00;99.90;;;;;;5170562;28;20018;-80
2022/11/28 10:14:32;;;;;;;5.38;4.15;;;8.50;99.90;;;;;;5163596;28;20036;-80
2022/11/28 10:17:13;;;;;;;6.93;4.93;;;8.80;99.90;;;;;;5169799;28;20030;-80
2022/11/28 10:19:54;;;;;;;4.93;3.22;;;9.00;99.90;;;;;;5174889;28;20044;-79
2022/11/28 10:22:51;;;;;;;6.18;4.85;;;8.90;99.90;;;;;;5156400;28;20042;-79
2022/11/28 10:25:44;;;;;;;4.50;3.45;;;8.90;99.90;;;;;;5141249;28;20056;-81
2022/11/28 10:28:36;;;;;;;6.30;3.95;;;8.70;99.90;;;;;;5174626;28;20523;-80
2022/11/28 10:31:20;;;;;;;8.95;7.28;;;8.60;99.90;;;;;;5167699;28;20018;-80
2022/11/28 10:34:13;;;;;;;14.93;10.05;;;8.50;99.90;;;;;;5154688;28;20293;-79
2022/11/28 10:37:00;;;;;;;9.98;6.13;;;8.80;99.90;;;;;;5153317;28;20223;-79
2022/11/28 10:39:36;;;;;;;16.15;14.45;;;9.40;99.90;;;;;;5174213;28;20325;-80
2022/11/28 10:42:39;;;;;;;14.77;9.98;;;9.90;99.90;;;;;;5182752;28;20018;-79
2022/11/28 10:45:51;;;;;;;49.53;37.92;;;10.30;99.90;;;;;;5174826;28;20189;-80
2022/11/28 10:48:25;;;;;;;125.70;89.25;;;10.90;99.90;;;;;;5172933;28;20208;-81
2022/11/28 10:51:12;;;;;;;60.10;37.33;;;10.50;99.90;;;;;;5174122;28;20053;-80
2022/11/28 10:54:00;;;;;;;81.63;40.22;;;10.20;99.90;;;;;;5149291;28;20030;-80
2022/11/28 10:56:46;;;;;;;7.55;5.65;;;9.50;99.90;;;;;;5139539;28;20046;-80
2022/11/28 11:00:00;;;;;;;5.45;3.80;;;9.40;99.90;;;;;;5171398;28;20028;-79
2022/11/28 11:02:49;;;;;;;8.43;4.55;;;9.80;99.90;;;;;;5137660;28;20040;-79
2022/11/28 11:05:33;;;;;;;7.45;3.63;;;10.00;99.90;;;;;;5156733;28;20041;-79
2022/11/28 11:08:16;;;;;;;5.35;4.05;;;10.40;99.90;;;;;;5149735;28;20033;-79
2022/11/28 11:11:07;;;;;;;4.57;3.20;;;10.80;99.90;;;;;;5150289;28;20040;-78
2022/11/28 11:14:01;;;;;;;6.25;3.15;;;10.00;99.90;;;;;;5173206;28;20307;-78
2022/11/28 11:16:49;;;;;;;99.68;85.88;;;8.90;99.90;;;;;;5128420;28;20046;-80
2022/11/28 11:19:31;;;;;;;17.25;14.90;;;8.70;99.90;;;;;;5139839;28;20029;-79
2022/11/28 11:22:22;;;;;;;82.63;73.80;;;8.20;99.90;;;;;;5156693;28;20068;-80
2022/11/28 11:25:15;;;;;;;23.08;20.73;;;8.20;99.90;;;;;;5154781;28;20481;-79
2022/11/28 11:27:59;;;;;;;13.93;10.35;;;8.30;99.90;;;;;;5135738;28;20034;-79
2022/11/28 11:30:33;;;;;;;19.77;17.75;;;8.00;99.90;;;;;;5161840;28;20026;-81
2022/11/28 11:33:11;;;;;;;12.57;9.90;;;8.10;99.90;;;;;;5163700;28;20028;-79
2022/11/28 11:35:48;;;;;;;18.15;16.23;;;8.10;99.90;;;;;;5187914;28;20038;-79
2022/11/28 11:38:22;;;;;;;14.20;11.63;;;8.00;99.90;;;;;;5173263;28;20053;-80
2022/11/28 11:40:55;;;;;;;7.57;4.82;;;8.10;99.90;;;;;;5173696;28;20028;-81
2022/11/28 11:43:35;;;;;;;6.40;4.07;;;8.10;99.90;;;;;;5173129;28;20373;-80
2022/11/28 11:46:10;;;;;;;5.15;3.78;;;8.00;99.90;;;;;;5176925;28;20032;-79
2022/11/28 11:48:46;;;;;;;11.60;6.03;;;7.70;99.90;;;;;;5160893;28;20056;-81
2022/11/28 11:51:31;;;;;;;9.02;5.97;;;7.90;99.90;;;;;;5178180;28;20024;-79
2022/11/28 11:54:14;;;;;;;;;;;8.00;99.90;;;;;;5143697;28;20026;-81
2022/11/28 11:56:49;;;;;;;10.95;7.47;;;7.90;99.90;;;;;;5174884;28;19917;-79
2022/11/28 11:59:32;;;;;;;17.27;8.68;;;8.00;99.90;;;;;;5158202;28;20523;-79
2022/11/28 12:02:34;;;;;;;7.30;4.82;;;8.20;99.90;;;;;;5176224;28;20295;-79
2022/11/28 12:05:18;;;;;;;8.75;6.65;;;7.90;99.90;;;;;;5140768;28;20050;-80
2022/11/28 12:08:10;;;;;;;9.47;5.07;;;7.60;99.90;;;;;;5140028;28;20065;-80
2022/11/28 12:10:50;;;;;;;460.80;259.67;;;7.40;99.90;;;;;;5175905;28;20056;-81
2022/11/28 12:13:29;;;;;;;377.33;236.13;;;7.30;99.90;;;;;;5144256;28;20044;-81
2022/11/28 12:16:34;;;;;;;13.43;9.32;;;7.30;99.90;;;;;;5179741;28;20038;-81
2022/11/28 12:19:26;;;;;;;12.73;8.23;;;7.40;99.90;;;;;;5163850;28;20040;-82
2022/11/28 12:22:21;;;;;;;7.03;4.80;;;7.50;99.90;;;;;;5157608;28;20027;-79
2022/11/28 12:25:20;;;;;;;11.10;5.35;;;7.50;99.90;;;;;;5159055;28;20041;-79
2022/11/28 12:27:57;;;;;;;13.95;10.13;;;7.40;99.90;;;;;;5173829;28;20046;-80
2022/11/28 12:30:44;;;;;;;9.80;5.95;;;7.30;99.90;;;;;;5136520;28;20044;-80
2022/11/28 12:33:37;;;;;;;8.80;5.95;;;7.20;99.90;;;;;;5175837;28;20032;-79
2022/11/28 12:37:02;;;;;;;11.43;5.30;;;7.30;99.90;;;;;;5177797;28;20029;-80
2022/11/28 12:40:07;;;;;;;7.40;5.40;;;7.20;99.90;;;;;;5114498;29;20229;-79
2022/11/28 12:42:47;;;;;;;7.43;4.85;;;7.10;99.90;;;;;;5115071;29;20035;-80
2022/11/28 12:45:32;;;;;;;12.65;6.65;;;7.10;99.90;;;;;;5114276;29;20031;-80
2022/11/28 12:48:11;;;;;;;;;;;7.20;99.90;;;;;;5110742;29;20043;-79
2022/11/28 12:50:57;;;;;;;14.20;7.63;;;7.10;99.90;;;;;;5115342;29;19903;-79
2022/11/28 12:53:52;;;;;;;14.18;9.30;;;7.30;99.90;;;;;;5125388;29;20042;-79
2022/11/28 12:57:04;;;;;;;19.75;10.60;;;7.50;99.90;;;;;;5128610;29;20065;-80
2022/11/28 12:59:48;;;;;;;21.20;11.50;;;7.30;99.90;;;;;;5105871;29;20040;-80
2022/11/28 13:02:46;;;;;;;24.98;14.93;;;7.60;99.90;;;;;;5111640;28;20031;-78
2022/11/28 13:05:52;;;;;;;17.20;8.68;;;7.50;99.90;;;;;;5102462;29;20040;-79
2022/11/28 13:08:48;;;;;;;15.23;8.88;;;7.20;99.90;;;;;;5130162;29;20042;-80
2022/11/28 13:11:37;;;;;;;10.85;7.35;;;7.20;99.90;;;;;;5123384;29;20040;-80
2022/11/28 13:14:26;;;;;;;17.10;8.07;;;7.20;99.90;;;;;;5153558;28;20030;-80
2022/11/28 13:17:17;;;;;;;13.90;7.50;;;7.10;99.90;;;;;;5168635;28;20056;-80
2022/11/28 13:20:02;;;;;;;15.07;8.18;;;7.10;99.90;;;;;;5181614;28;20034;-80
2022/11/28 13:22:58;;;;;;;19.55;8.55;;;7.10;99.90;;;;;;5179159;28;20053;-80
2022/11/28 13:25:38;;;;;;;19.27;8.85;;;7.00;99.90;;;;;;5160708;28;20053;-80
2022/11/28 13:28:27;;;;;;;19.13;8.50;;;6.90;99.90;;;;;;5161051;28;20030;-79
2022/11/28 13:31:09;;;;;;;17.10;7.97;;;6.90;99.90;;;;;;5165387;28;20026;-81
2022/11/28 13:33:56;;;;;;;19.90;8.90;;;6.70;99.90;;;;;;5139507;28;20041;-79
2022/11/28 13:36:46;;;;;;;13.45;7.25;;;6.60;99.90;;;;;;5139379;28;20060;-81
2022/11/28 13:39:34;;;;;;;16.80;8.20;;;6.60;99.90;;;;;;5141339;28;20031;-81
2022/11/28 13:42:05;;;;;;;14.95;7.32;;;6.50;99.90;;;;;;5177121;28;20052;-78
2022/11/28 13:44:37;;;;;;;15.73;7.05;;;6.40;99.90;;;;;;5172899;28;20488;-79
2022/11/28 13:47:28;;;;;;;14.90;7.22;;;6.30;99.90;;;;;;5176767;28;20029;-79
2022/11/28 13:50:24;;;;;;;17.55;7.07;;;6.10;99.90;;;;;;5178365;28;20048;-79